sensor_id;sensor_type;location;lat;lon;timestamp;P1;durP1;ratioP1;P2;durP2;ratioP2
20986;SDS011;10652;50.306;8.570;2022-10-13T00:03:46;14.65;;;10.88;;
20986;SDS011;10652;50.306;8.570;2022-10-13T00:07:56;16.27;;;11.00;;
20986;SDS011;10652;50.306;8.570;2022-10-13T00:11:59;13.68;;;10.07;;
20986;SDS011;10652;50.306;8.570;2022-10-13T00:16:01;14.20;;;10.75;;
20986;SDS011;10652;50.306;8.570;2022-10-13T00:20:04;14.88;;;10.80;;
20986;SDS011;10652;50.306;8.570;2022-10-13T00:24:09;13.27;;;10.25;;
20986;SDS011;10652;50.306;8.570;2022-10-13T00:28:12;13.50;;;9.80;;
20986;SDS011;10652;50.306;8.570;2022-10-13T00:32:16;14.20;;;10.38;;
20986;SDS011;10652;50.306;8.570;2022-10-13T00:36:19;14.50;;;9.77;;
20986;SDS011;10652;50.306;8.570;2022-10-13T00:40:22;14.57;;;10.20;;
20986;SDS011;10652;50.306;8.570;2022-10-13T00:48:55;10.27;;;8.52;;
20986;SDS011;10652;50.306;8.570;2022-10-13T00:53:00;13.88;;;9.85;;
20986;SDS011;10652;50.306;8.570;2022-10-13T00:57:02;11.38;;;8.32;;
20986;SDS011;10652;50.306;8.570;2022-10-13T01:01:05;11.20;;;9.02;;
20986;SDS011;10652;50.306;8.570;2022-10-13T01:05:07;11.60;;;9.07;;
20986;SDS011;10652;50.306;8.570;2022-10-13T01:09:10;11.93;;;8.18;;
20986;SDS011;10652;50.306;8.570;2022-10-13T01:13:15;12.18;;;8.77;;
20986;SDS011;10652;50.306;8.570;2022-10-13T01:21:40;8.65;;;7.30;;
20986;SDS011;10652;50.306;8.570;2022-10-13T01:25:56;13.70;;;7.13;;
20986;SDS011;10652;50.306;8.570;2022-10-13T01:30:23;8.82;;;6.93;;
20986;SDS011;10652;50.306;8.570;2022-10-13T01:34:28;7.10;;;6.40;;
20986;SDS011;10652;50.306;8.570;2022-10-13T01:38:37;7.88;;;6.22;;
20986;SDS011;10652;50.306;8.570;2022-10-13T01:47:00;10.57;;;7.22;;
20986;SDS011;10652;50.306;8.570;2022-10-13T01:51:03;13.88;;;7.70;;
20986;SDS011;10652;50.306;8.570;2022-10-13T01:55:08;10.90;;;7.57;;
20986;SDS011;10652;50.306;8.570;2022-10-13T01:59:12;10.45;;;7.20;;
20986;SDS011;10652;50.306;8.570;2022-10-13T02:03:35;12.02;;;7.63;;
20986;SDS011;10652;50.306;8.570;2022-10-13T02:07:48;12.57;;;7.55;;
20986;SDS011;10652;50.306;8.570;2022-10-13T02:12:48;12.85;;;8.48;;
20986;SDS011;10652;50.306;8.570;2022-10-13T02:16:36;14.65;;;8.57;;
20986;SDS011;10652;50.306;8.570;2022-10-13T02:20:41;13.32;;;8.57;;
20986;SDS011;10652;50.306;8.570;2022-10-13T02:24:45;14.93;;;9.55;;
20986;SDS011;10652;50.306;8.570;2022-10-13T02:28:47;15.43;;;9.38;;
20986;SDS011;10652;50.306;8.570;2022-10-13T02:32:49;14.75;;;9.88;;
20986;SDS011;10652;50.306;8.570;2022-10-13T02:36:51;17.30;;;9.80;;
20986;SDS011;10652;50.306;8.570;2022-10-13T02:40:54;16.90;;;9.82;;
20986;SDS011;10652;50.306;8.570;2022-10-13T02:44:56;11.52;;;7.88;;
20986;SDS011;10652;50.306;8.570;2022-10-13T02:48:58;7.97;;;6.50;;
20986;SDS011;10652;50.306;8.570;2022-10-13T02:53:02;10.82;;;7.25;;
20986;SDS011;10652;50.306;8.570;2022-10-13T02:57:04;11.32;;;7.00;;
20986;SDS011;10652;50.306;8.570;2022-10-13T03:01:11;12.95;;;7.20;;
20986;SDS011;10652;50.306;8.570;2022-10-13T03:05:15;11.00;;;6.88;;
20986;SDS011;10652;50.306;8.570;2022-10-13T03:09:17;12.77;;;7.20;;
20986;SDS011;10652;50.306;8.570;2022-10-13T03:13:19;10.13;;;7.05;;
20986;SDS011;10652;50.306;8.570;2022-10-13T03:17:21;13.68;;;8.45;;
20986;SDS011;10652;50.306;8.570;2022-10-13T03:21:23;17.02;;;9.05;;
20986;SDS011;10652;50.306;8.570;2022-10-13T03:25:26;15.48;;;9.88;;
20986;SDS011;10652;50.306;8.570;2022-10-13T03:29:28;17.92;;;10.00;;
20986;SDS011;10652;50.306;8.570;2022-10-13T03:33:30;18.58;;;9.82;;
20986;SDS011;10652;50.306;8.570;2022-10-13T03:37:33;11.65;;;7.43;;
20986;SDS011;10652;50.306;8.570;2022-10-13T03:41:35;12.07;;;6.88;;
20986;SDS011;10652;50.306;8.570;2022-10-13T03:45:37;13.57;;;7.13;;
20986;SDS011;10652;50.306;8.570;2022-10-13T03:49:39;12.90;;;7.75;;
20986;SDS011;10652;50.306;8.570;2022-10-13T03:53:41;19.27;;;13.18;;
20986;SDS011;10652;50.306;8.570;2022-10-13T03:57:43;12.52;;;8.93;;
20986;SDS011;10652;50.306;8.570;2022-10-13T04:01:45;13.93;;;8.02;;
20986;SDS011;10652;50.306;8.570;2022-10-13T04:05:47;13.80;;;8.15;;
20986;SDS011;10652;50.306;8.570;2022-10-13T04:09:50;15.68;;;8.77;;
20986;SDS011;10652;50.306;8.570;2022-10-13T04:13:54;15.25;;;8.75;;
20986;SDS011;10652;50.306;8.570;2022-10-13T04:17:56;15.60;;;8.52;;
20986;SDS011;10652;50.306;8.570;2022-10-13T04:21:59;15.73;;;8.70;;
20986;SDS011;10652;50.306;8.570;2022-10-13T04:26:01;14.25;;;8.82;;
20986;SDS011;10652;50.306;8.570;2022-10-13T04:30:03;13.27;;;8.70;;
20986;SDS011;10652;50.306;8.570;2022-10-13T04:34:06;14.43;;;7.50;;
20986;SDS011;10652;50.306;8.570;2022-10-13T04:38:09;14.95;;;7.90;;
20986;SDS011;10652;50.306;8.570;2022-10-13T04:42:11;13.85;;;8.30;;
20986;SDS011;10652;50.306;8.570;2022-10-13T04:46:14;12.45;;;8.45;;
20986;SDS011;10652;50.306;8.570;2022-10-13T04:50:22;15.70;;;8.80;;
20986;SDS011;10652;50.306;8.570;2022-10-13T04:54:32;13.70;;;9.52;;
20986;SDS011;10652;50.306;8.570;2022-10-13T04:58:34;12.90;;;8.18;;
20986;SDS011;10652;50.306;8.570;2022-10-13T05:02:36;16.30;;;8.77;;
20986;SDS011;10652;50.306;8.570;2022-10-13T05:06:39;15.77;;;8.88;;
20986;SDS011;10652;50.306;8.570;2022-10-13T05:11:02;12.95;;;8.85;;
20986;SDS011;10652;50.306;8.570;2022-10-13T05:15:04;15.10;;;8.82;;
20986;SDS011;10652;50.306;8.570;2022-10-13T05:19:07;17.10;;;10.15;;
20986;SDS011;10652;50.306;8.570;2022-10-13T05:23:09;17.88;;;9.82;;
20986;SDS011;10652;50.306;8.570;2022-10-13T05:27:11;15.35;;;8.82;;
20986;SDS011;10652;50.306;8.570;2022-10-13T05:31:15;16.98;;;9.32;;
20986;SDS011;10652;50.306;8.570;2022-10-13T05:35:19;11.60;;;8.02;;
20986;SDS011;10652;50.306;8.570;2022-10-13T05:39:21;12.30;;;7.72;;
20986;SDS011;10652;50.306;8.570;2022-10-13T05:43:23;13.30;;;8.05;;
20986;SDS011;10652;50.306;8.570;2022-10-13T05:47:25;15.45;;;8.32;;
20986;SDS011;10652;50.306;8.570;2022-10-13T05:51:31;13.80;;;7.93;;
20986;SDS011;10652;50.306;8.570;2022-10-13T05:55:36;18.27;;;8.90;;
20986;SDS011;10652;50.306;8.570;2022-10-13T05:59:40;13.48;;;8.95;;
20986;SDS011;10652;50.306;8.570;2022-10-13T06:03:46;17.45;;;9.68;;
20986;SDS011;10652;50.306;8.570;2022-10-13T06:07:50;13.98;;;9.00;;
20986;SDS011;10652;50.306;8.570;2022-10-13T06:11:52;12.30;;;8.02;;
20986;SDS011;10652;50.306;8.570;2022-10-13T06:15:56;13.95;;;7.70;;
20986;SDS011;10652;50.306;8.570;2022-10-13T06:19:58;12.43;;;8.20;;
20986;SDS011;10652;50.306;8.570;2022-10-13T06:24:00;12.93;;;8.05;;
20986;SDS011;10652;50.306;8.570;2022-10-13T06:28:03;13.07;;;8.38;;
20986;SDS011;10652;50.306;8.570;2022-10-13T06:32:05;15.23;;;9.52;;
20986;SDS011;10652;50.306;8.570;2022-10-13T06:36:07;13.63;;;9.07;;
20986;SDS011;10652;50.306;8.570;2022-10-13T06:40:10;14.55;;;9.85;;
20986;SDS011;10652;50.306;8.570;2022-10-13T06:44:12;14.60;;;8.40;;
20986;SDS011;10652;50.306;8.570;2022-10-13T06:48:14;13.30;;;9.30;;
20986;SDS011;10652;50.306;8.570;2022-10-13T06:52:16;12.50;;;8.40;;
20986;SDS011;10652;50.306;8.570;2022-10-13T06:56:19;13.02;;;8.93;;
20986;SDS011;10652;50.306;8.570;2022-10-13T07:00:21;14.40;;;9.23;;
20986;SDS011;10652;50.306;8.570;2022-10-13T07:04:23;13.70;;;8.63;;
20986;SDS011;10652;50.306;8.570;2022-10-13T07:08:29;15.00;;;7.22;;
20986;SDS011;10652;50.306;8.570;2022-10-13T07:12:31;13.70;;;7.53;;
20986;SDS011;10652;50.306;8.570;2022-10-13T07:16:33;12.07;;;7.57;;
20986;SDS011;10652;50.306;8.570;2022-10-13T07:20:36;11.55;;;7.35;;
20986;SDS011;10652;50.306;8.570;2022-10-13T07:24:38;10.63;;;7.43;;
20986;SDS011;10652;50.306;8.570;2022-10-13T07:28:41;13.35;;;7.32;;
20986;SDS011;10652;50.306;8.570;2022-10-13T07:32:44;14.55;;;8.05;;
20986;SDS011;10652;50.306;8.570;2022-10-13T07:36:46;16.48;;;11.82;;
20986;SDS011;10652;50.306;8.570;2022-10-13T07:40:48;14.82;;;11.05;;
20986;SDS011;10652;50.306;8.570;2022-10-13T07:44:50;13.82;;;9.45;;
20986;SDS011;10652;50.306;8.570;2022-10-13T07:48:52;16.23;;;9.50;;
20986;SDS011;10652;50.306;8.570;2022-10-13T07:52:55;15.25;;;9.07;;
20986;SDS011;10652;50.306;8.570;2022-10-13T07:56:57;14.40;;;9.90;;
20986;SDS011;10652;50.306;8.570;2022-10-13T08:00:59;14.52;;;9.85;;
20986;SDS011;10652;50.306;8.570;2022-10-13T08:05:04;14.68;;;9.60;;
20986;SDS011;10652;50.306;8.570;2022-10-13T08:09:06;14.30;;;9.38;;
20986;SDS011;10652;50.306;8.570;2022-10-13T08:13:09;15.52;;;8.95;;
20986;SDS011;10652;50.306;8.570;2022-10-13T08:17:11;11.65;;;8.85;;
20986;SDS011;10652;50.306;8.570;2022-10-13T08:21:14;13.95;;;8.70;;
20986;SDS011;10652;50.306;8.570;2022-10-13T08:25:41;15.07;;;8.30;;
20986;SDS011;10652;50.306;8.570;2022-10-13T08:29:44;13.90;;;8.88;;
20986;SDS011;10652;50.306;8.570;2022-10-13T08:33:46;19.48;;;12.98;;
20986;SDS011;10652;50.306;8.570;2022-10-13T08:37:49;15.07;;;8.32;;
20986;SDS011;10652;50.306;8.570;2022-10-13T08:41:51;15.75;;;9.05;;
20986;SDS011;10652;50.306;8.570;2022-10-13T08:45:56;18.67;;;8.63;;
20986;SDS011;10652;50.306;8.570;2022-10-13T08:50:06;13.57;;;7.82;;
20986;SDS011;10652;50.306;8.570;2022-10-13T08:54:16;15.18;;;9.63;;
20986;SDS011;10652;50.306;8.570;2022-10-13T09:02:29;13.63;;;8.07;;
20986;SDS011;10652;50.306;8.570;2022-10-13T09:06:32;13.43;;;7.97;;
20986;SDS011;10652;50.306;8.570;2022-10-13T09:10:47;17.73;;;7.75;;
20986;SDS011;10652;50.306;8.570;2022-10-13T09:14:56;16.42;;;8.82;;
20986;SDS011;10652;50.306;8.570;2022-10-13T09:19:12;11.40;;;7.13;;
20986;SDS011;10652;50.306;8.570;2022-10-13T09:23:17;12.85;;;7.80;;
20986;SDS011;10652;50.306;8.570;2022-10-13T09:27:20;12.90;;;7.00;;
20986;SDS011;10652;50.306;8.570;2022-10-13T09:31:24;14.85;;;6.60;;
20986;SDS011;10652;50.306;8.570;2022-10-13T09:35:30;14.15;;;8.18;;
20986;SDS011;10652;50.306;8.570;2022-10-13T09:39:35;13.05;;;8.13;;
20986;SDS011;10652;50.306;8.570;2022-10-13T09:47:53;11.60;;;7.88;;
20986;SDS011;10652;50.306;8.570;2022-10-13T10:00:35;15.00;;;7.80;;
20986;SDS011;10652;50.306;8.570;2022-10-13T10:04:38;14.20;;;7.80;;
20986;SDS011;10652;50.306;8.570;2022-10-13T10:09:02;13.95;;;8.88;;
20986;SDS011;10652;50.306;8.570;2022-10-13T10:13:14;15.40;;;9.82;;
20986;SDS011;10652;50.306;8.570;2022-10-13T10:17:21;16.15;;;9.02;;
20986;SDS011;10652;50.306;8.570;2022-10-13T10:25:49;14.07;;;8.15;;
20986;SDS011;10652;50.306;8.570;2022-10-13T10:47:26;16.33;;;10.68;;
20986;SDS011;10652;50.306;8.570;2022-10-13T10:51:34;16.02;;;10.23;;
20986;SDS011;10652;50.306;8.570;2022-10-13T10:55:42;19.85;;;11.13;;
20986;SDS011;10652;50.306;8.570;2022-10-13T11:04:23;17.98;;;10.65;;
20986;SDS011;10652;50.306;8.570;2022-10-13T11:12:46;16.83;;;10.07;;
20986;SDS011;10652;50.306;8.570;2022-10-13T11:17:00;16.60;;;9.60;;
20986;SDS011;10652;50.306;8.570;2022-10-13T11:21:03;14.93;;;9.20;;
20986;SDS011;10652;50.306;8.570;2022-10-13T11:25:33;15.60;;;9.70;;
20986;SDS011;10652;50.306;8.570;2022-10-13T11:33:59;17.75;;;10.35;;
20986;SDS011;10652;50.306;8.570;2022-10-13T11:38:06;16.83;;;10.05;;
20986;SDS011;10652;50.306;8.570;2022-10-13T11:51:29;20.27;;;11.25;;
20986;SDS011;10652;50.306;8.570;2022-10-13T11:59:54;16.63;;;8.77;;
20986;SDS011;10652;50.306;8.570;2022-10-13T12:04:11;13.13;;;8.10;;
20986;SDS011;10652;50.306;8.570;2022-10-13T12:08:15;12.85;;;8.57;;
20986;SDS011;10652;50.306;8.570;2022-10-13T12:12:19;13.63;;;7.32;;
20986;SDS011;10652;50.306;8.570;2022-10-13T12:16:24;10.23;;;6.68;;
20986;SDS011;10652;50.306;8.570;2022-10-13T12:20:28;18.27;;;7.25;;
20986;SDS011;10652;50.306;8.570;2022-10-13T12:24:32;11.57;;;7.70;;
20986;SDS011;10652;50.306;8.570;2022-10-13T12:32:55;14.23;;;8.68;;
20986;SDS011;10652;50.306;8.570;2022-10-13T12:37:00;14.20;;;8.23;;
20986;SDS011;10652;50.306;8.570;2022-10-13T12:41:04;12.05;;;7.68;;
20986;SDS011;10652;50.306;8.570;2022-10-13T12:45:12;12.25;;;7.57;;
20986;SDS011;10652;50.306;8.570;2022-10-13T12:49:24;11.55;;;6.57;;
20986;SDS011;10652;50.306;8.570;2022-10-13T12:53:28;14.00;;;8.30;;
20986;SDS011;10652;50.306;8.570;2022-10-13T12:57:31;16.13;;;8.82;;
20986;SDS011;10652;50.306;8.570;2022-10-13T13:01:38;14.70;;;8.43;;
20986;SDS011;10652;50.306;8.570;2022-10-13T13:05:41;13.75;;;7.85;;
20986;SDS011;10652;50.306;8.570;2022-10-13T13:14:23;13.40;;;8.95;;
20986;SDS011;10652;50.306;8.570;2022-10-13T13:18:38;12.68;;;8.77;;
20986;SDS011;10652;50.306;8.570;2022-10-13T13:22:42;13.80;;;9.23;;
20986;SDS011;10652;50.306;8.570;2022-10-13T13:26:44;14.57;;;9.45;;
20986;SDS011;10652;50.306;8.570;2022-10-13T13:30:46;16.20;;;9.38;;
20986;SDS011;10652;50.306;8.570;2022-10-13T13:34:49;15.95;;;9.15;;
20986;SDS011;10652;50.306;8.570;2022-10-13T13:38:52;17.83;;;8.85;;
20986;SDS011;10652;50.306;8.570;2022-10-13T13:42:55;15.68;;;9.90;;
20986;SDS011;10652;50.306;8.570;2022-10-13T13:47:01;20.15;;;10.45;;
20986;SDS011;10652;50.306;8.570;2022-10-13T13:51:04;13.55;;;9.73;;
20986;SDS011;10652;50.306;8.570;2022-10-13T13:55:06;16.65;;;10.52;;
20986;SDS011;10652;50.306;8.570;2022-10-13T13:59:09;18.27;;;10.75;;
20986;SDS011;10652;50.306;8.570;2022-10-13T14:03:11;18.63;;;11.05;;
20986;SDS011;10652;50.306;8.570;2022-10-13T14:07:19;16.85;;;10.77;;
20986;SDS011;10652;50.306;8.570;2022-10-13T14:11:25;15.63;;;9.43;;
20986;SDS011;10652;50.306;8.570;2022-10-13T14:15:27;18.00;;;10.52;;
20986;SDS011;10652;50.306;8.570;2022-10-13T14:19:31;16.35;;;10.48;;
20986;SDS011;10652;50.306;8.570;2022-10-13T14:23:34;18.08;;;10.63;;
20986;SDS011;10652;50.306;8.570;2022-10-13T14:27:36;16.05;;;10.40;;
20986;SDS011;10652;50.306;8.570;2022-10-13T14:31:41;21.45;;;11.23;;
20986;SDS011;10652;50.306;8.570;2022-10-13T14:35:44;17.13;;;10.50;;
20986;SDS011;10652;50.306;8.570;2022-10-13T14:39:49;18.95;;;11.38;;
20986;SDS011;10652;50.306;8.570;2022-10-13T14:43:52;20.98;;;10.77;;
20986;SDS011;10652;50.306;8.570;2022-10-13T14:47:57;14.98;;;9.90;;
20986;SDS011;10652;50.306;8.570;2022-10-13T14:51:59;16.42;;;10.32;;
20986;SDS011;10652;50.306;8.570;2022-10-13T14:56:02;16.63;;;10.13;;
20986;SDS011;10652;50.306;8.570;2022-10-13T15:00:05;17.98;;;9.68;;
20986;SDS011;10652;50.306;8.570;2022-10-13T15:04:07;13.90;;;9.85;;
20986;SDS011;10652;50.306;8.570;2022-10-13T15:08:11;16.10;;;9.35;;
20986;SDS011;10652;50.306;8.570;2022-10-13T15:12:14;17.20;;;10.75;;
20986;SDS011;10652;50.306;8.570;2022-10-13T15:16:20;19.67;;;11.75;;
20986;SDS011;10652;50.306;8.570;2022-10-13T15:20:26;16.40;;;11.10;;
20986;SDS011;10652;50.306;8.570;2022-10-13T15:24:29;19.15;;;12.13;;
20986;SDS011;10652;50.306;8.570;2022-10-13T15:28:36;15.57;;;10.40;;
20986;SDS011;10652;50.306;8.570;2022-10-13T15:32:43;19.02;;;12.07;;
20986;SDS011;10652;50.306;8.570;2022-10-13T15:36:45;18.25;;;12.45;;
20986;SDS011;10652;50.306;8.570;2022-10-13T15:40:48;18.77;;;11.55;;
20986;SDS011;10652;50.306;8.570;2022-10-13T15:44:51;17.17;;;10.52;;
20986;SDS011;10652;50.306;8.570;2022-10-13T15:49:13;18.08;;;11.93;;
20986;SDS011;10652;50.306;8.570;2022-10-13T15:53:15;25.42;;;12.80;;
20986;SDS011;10652;50.306;8.570;2022-10-13T15:57:17;19.70;;;10.93;;
20986;SDS011;10652;50.306;8.570;2022-10-13T16:01:19;19.85;;;10.35;;
20986;SDS011;10652;50.306;8.570;2022-10-13T16:05:21;17.27;;;10.23;;
20986;SDS011;10652;50.306;8.570;2022-10-13T16:09:23;15.70;;;10.38;;
20986;SDS011;10652;50.306;8.570;2022-10-13T16:13:25;19.60;;;12.10;;
20986;SDS011;10652;50.306;8.570;2022-10-13T16:17:27;17.88;;;11.52;;
20986;SDS011;10652;50.306;8.570;2022-10-13T16:21:29;20.45;;;12.48;;
20986;SDS011;10652;50.306;8.570;2022-10-13T16:25:31;24.83;;;13.13;;
20986;SDS011;10652;50.306;8.570;2022-10-13T16:29:33;19.88;;;12.40;;
20986;SDS011;10652;50.306;8.570;2022-10-13T16:33:35;19.58;;;12.88;;
20986;SDS011;10652;50.306;8.570;2022-10-13T16:37:37;20.05;;;12.60;;
20986;SDS011;10652;50.306;8.570;2022-10-13T16:41:40;23.88;;;13.27;;
20986;SDS011;10652;50.306;8.570;2022-10-13T16:45:42;23.65;;;12.52;;
20986;SDS011;10652;50.306;8.570;2022-10-13T16:50:00;22.60;;;12.30;;
20986;SDS011;10652;50.306;8.570;2022-10-13T16:54:07;22.45;;;13.43;;
20986;SDS011;10652;50.306;8.570;2022-10-13T16:58:09;21.58;;;13.85;;
20986;SDS011;10652;50.306;8.570;2022-10-13T17:02:12;18.33;;;12.40;;
20986;SDS011;10652;50.306;8.570;2022-10-13T17:06:15;20.88;;;13.05;;
20986;SDS011;10652;50.306;8.570;2022-10-13T17:10:19;19.83;;;12.98;;
20986;SDS011;10652;50.306;8.570;2022-10-13T17:14:21;23.30;;;12.88;;
20986;SDS011;10652;50.306;8.570;2022-10-13T17:18:23;22.33;;;13.70;;
20986;SDS011;10652;50.306;8.570;2022-10-13T17:22:26;21.02;;;13.07;;
20986;SDS011;10652;50.306;8.570;2022-10-13T17:26:28;22.52;;;12.95;;
20986;SDS011;10652;50.306;8.570;2022-10-13T17:30:30;17.17;;;13.48;;
20986;SDS011;10652;50.306;8.570;2022-10-13T17:34:32;18.88;;;12.73;;
20986;SDS011;10652;50.306;8.570;2022-10-13T17:38:37;19.08;;;12.40;;
20986;SDS011;10652;50.306;8.570;2022-10-13T17:42:39;20.60;;;12.88;;
20986;SDS011;10652;50.306;8.570;2022-10-13T17:46:41;19.88;;;13.20;;
20986;SDS011;10652;50.306;8.570;2022-10-13T17:50:43;20.02;;;12.77;;
20986;SDS011;10652;50.306;8.570;2022-10-13T17:54:45;20.35;;;13.23;;
20986;SDS011;10652;50.306;8.570;2022-10-13T17:58:47;20.58;;;14.38;;
20986;SDS011;10652;50.306;8.570;2022-10-13T18:02:51;18.40;;;12.82;;
20986;SDS011;10652;50.306;8.570;2022-10-13T18:06:53;20.02;;;13.90;;
20986;SDS011;10652;50.306;8.570;2022-10-13T18:11:02;20.23;;;14.98;;
20986;SDS011;10652;50.306;8.570;2022-10-13T18:15:09;22.50;;;15.07;;
20986;SDS011;10652;50.306;8.570;2022-10-13T18:19:11;21.40;;;15.85;;
20986;SDS011;10652;50.306;8.570;2022-10-13T18:23:14;26.52;;;17.30;;
20986;SDS011;10652;50.306;8.570;2022-10-13T18:27:16;26.80;;;17.38;;
20986;SDS011;10652;50.306;8.570;2022-10-13T18:31:19;25.15;;;16.70;;
20986;SDS011;10652;50.306;8.570;2022-10-13T18:35:24;24.02;;;17.10;;
20986;SDS011;10652;50.306;8.570;2022-10-13T18:39:32;25.02;;;16.35;;
20986;SDS011;10652;50.306;8.570;2022-10-13T18:43:35;25.10;;;15.35;;
20986;SDS011;10652;50.306;8.570;2022-10-13T18:47:37;22.15;;;14.85;;
20986;SDS011;10652;50.306;8.570;2022-10-13T18:51:40;21.10;;;14.27;;
20986;SDS011;10652;50.306;8.570;2022-10-13T18:55:42;21.25;;;15.23;;
20986;SDS011;10652;50.306;8.570;2022-10-13T18:59:45;20.30;;;15.32;;
20986;SDS011;10652;50.306;8.570;2022-10-13T19:03:47;21.45;;;15.55;;
20986;SDS011;10652;50.306;8.570;2022-10-13T19:07:51;21.02;;;15.10;;
20986;SDS011;10652;50.306;8.570;2022-10-13T19:11:56;24.98;;;14.93;;
20986;SDS011;10652;50.306;8.570;2022-10-13T19:16:01;20.17;;;14.68;;
20986;SDS011;10652;50.306;8.570;2022-10-13T19:20:03;19.77;;;14.57;;
20986;SDS011;10652;50.306;8.570;2022-10-13T19:24:06;20.92;;;14.60;;
20986;SDS011;10652;50.306;8.570;2022-10-13T19:28:09;21.15;;;14.88;;
20986;SDS011;10652;50.306;8.570;2022-10-13T19:32:11;24.25;;;14.55;;
20986;SDS011;10652;50.306;8.570;2022-10-13T19:36:21;18.02;;;13.52;;
20986;SDS011;10652;50.306;8.570;2022-10-13T19:40:34;18.02;;;13.60;;
20986;SDS011;10652;50.306;8.570;2022-10-13T19:44:42;19.13;;;12.98;;
20986;SDS011;10652;50.306;8.570;2022-10-13T19:48:45;12.65;;;9.95;;
20986;SDS011;10652;50.306;8.570;2022-10-13T19:52:47;14.32;;;9.00;;
20986;SDS011;10652;50.306;8.570;2022-10-13T19:56:49;10.23;;;6.10;;
20986;SDS011;10652;50.306;8.570;2022-10-13T20:00:51;7.38;;;4.90;;
20986;SDS011;10652;50.306;8.570;2022-10-13T20:04:54;5.00;;;3.83;;
20986;SDS011;10652;50.306;8.570;2022-10-13T20:08:56;6.38;;;4.40;;
20986;SDS011;10652;50.306;8.570;2022-10-13T20:12:59;6.63;;;4.97;;
20986;SDS011;10652;50.306;8.570;2022-10-13T20:17:01;9.20;;;6.82;;
20986;SDS011;10652;50.306;8.570;2022-10-13T20:21:04;11.68;;;8.00;;
20986;SDS011;10652;50.306;8.570;2022-10-13T20:25:07;6.93;;;6.22;;
20986;SDS011;10652;50.306;8.570;2022-10-13T20:29:10;9.23;;;6.95;;
20986;SDS011;10652;50.306;8.570;2022-10-13T20:33:12;7.47;;;5.70;;
20986;SDS011;10652;50.306;8.570;2022-10-13T20:37:14;8.85;;;5.88;;
20986;SDS011;10652;50.306;8.570;2022-10-13T20:41:17;8.00;;;5.57;;
20986;SDS011;10652;50.306;8.570;2022-10-13T20:45:22;7.22;;;4.97;;
20986;SDS011;10652;50.306;8.570;2022-10-13T20:49:24;5.95;;;5.35;;
20986;SDS011;10652;50.306;8.570;2022-10-13T20:53:26;10.18;;;6.80;;
20986;SDS011;10652;50.306;8.570;2022-10-13T20:57:28;16.45;;;10.35;;
20986;SDS011;10652;50.306;8.570;2022-10-13T21:01:30;18.35;;;13.40;;
20986;SDS011;10652;50.306;8.570;2022-10-13T21:05:33;25.98;;;17.13;;
20986;SDS011;10652;50.306;8.570;2022-10-13T21:09:35;14.23;;;9.40;;
20986;SDS011;10652;50.306;8.570;2022-10-13T21:13:37;16.95;;;11.57;;
20986;SDS011;10652;50.306;8.570;2022-10-13T21:17:40;15.77;;;11.20;;
20986;SDS011;10652;50.306;8.570;2022-10-13T21:21:43;14.90;;;10.65;;
20986;SDS011;10652;50.306;8.570;2022-10-13T21:25:45;12.60;;;9.07;;
20986;SDS011;10652;50.306;8.570;2022-10-13T21:29:47;12.95;;;8.75;;
20986;SDS011;10652;50.306;8.570;2022-10-13T21:33:49;9.77;;;7.38;;
20986;SDS011;10652;50.306;8.570;2022-10-13T21:37:52;7.50;;;6.40;;
20986;SDS011;10652;50.306;8.570;2022-10-13T21:41:54;8.32;;;6.13;;
20986;SDS011;10652;50.306;8.570;2022-10-13T21:46:17;7.50;;;5.80;;
20986;SDS011;10652;50.306;8.570;2022-10-13T21:50:26;8.27;;;5.70;;
20986;SDS011;10652;50.306;8.570;2022-10-13T21:54:28;10.77;;;7.32;;
20986;SDS011;10652;50.306;8.570;2022-10-13T21:58:30;8.48;;;5.68;;
20986;SDS011;10652;50.306;8.570;2022-10-13T22:02:33;9.40;;;6.10;;
20986;SDS011;10652;50.306;8.570;2022-10-13T22:06:35;9.95;;;6.30;;
20986;SDS011;10652;50.306;8.570;2022-10-13T22:10:37;9.35;;;7.05;;
20986;SDS011;10652;50.306;8.570;2022-10-13T22:14:39;8.57;;;5.65;;
20986;SDS011;10652;50.306;8.570;2022-10-13T22:18:41;5.47;;;4.05;;
20986;SDS011;10652;50.306;8.570;2022-10-13T22:22:43;6.53;;;4.00;;
20986;SDS011;10652;50.306;8.570;2022-10-13T22:26:46;7.80;;;4.20;;
20986;SDS011;10652;50.306;8.570;2022-10-13T22:30:50;7.03;;;3.83;;
20986;SDS011;10652;50.306;8.570;2022-10-13T22:34:53;4.10;;;3.35;;
20986;SDS011;10652;50.306;8.570;2022-10-13T22:38:55;7.00;;;4.10;;
20986;SDS011;10652;50.306;8.570;2022-10-13T22:42:59;6.55;;;4.60;;
20986;SDS011;10652;50.306;8.570;2022-10-13T22:47:01;5.50;;;4.35;;
20986;SDS011;10652;50.306;8.570;2022-10-13T22:51:04;5.43;;;4.05;;
20986;SDS011;10652;50.306;8.570;2022-10-13T22:55:07;5.25;;;4.30;;
20986;SDS011;10652;50.306;8.570;2022-10-13T22:59:10;6.38;;;4.55;;
20986;SDS011;10652;50.306;8.570;2022-10-13T23:03:13;4.72;;;4.30;;
20986;SDS011;10652;50.306;8.570;2022-10-13T23:07:19;6.47;;;3.85;;
20986;SDS011;10652;50.306;8.570;2022-10-13T23:11:23;4.70;;;3.50;;
20986;SDS011;10652;50.306;8.570;2022-10-13T23:15:25;6.00;;;3.80;;
20986;SDS011;10652;50.306;8.570;2022-10-13T23:19:27;5.00;;;4.07;;
20986;SDS011;10652;50.306;8.570;2022-10-13T23:23:29;4.70;;;3.70;;
20986;SDS011;10652;50.306;8.570;2022-10-13T23:27:31;6.25;;;3.90;;
20986;SDS011;10652;50.306;8.570;2022-10-13T23:31:33;7.10;;;3.92;;
20986;SDS011;10652;50.306;8.570;2022-10-13T23:35:35;5.35;;;3.78;;
20986;SDS011;10652;50.306;8.570;2022-10-13T23:39:37;4.90;;;3.67;;
20986;SDS011;10652;50.306;8.570;2022-10-13T23:43:39;4.38;;;3.38;;
20986;SDS011;10652;50.306;8.570;2022-10-13T23:47:42;5.30;;;3.45;;
20986;SDS011;10652;50.306;8.570;2022-10-13T23:51:44;5.13;;;3.55;;
20986;SDS011;10652;50.306;8.570;2022-10-13T23:55:46;5.65;;;3.60;;
20986;SDS011;10652;50.306;8.570;2022-10-13T23:59:48;3.75;;;3.20;;
